sensor_id;sensor_type;location;lat;lon;timestamp;P1;durP1;ratioP1;P2;durP2;ratioP2
66970;SDS011;53901;51.466;-2.588;2023-08-30T00:00:50;9.60;;;2.42;;
66970;SDS011;53901;51.466;-2.588;2023-08-30T00:03:15;10.60;;;2.58;;
66970;SDS011;53901;51.466;-2.588;2023-08-30T00:05:41;13.25;;;2.65;;
66970;SDS011;53901;51.466;-2.588;2023-08-30T00:08:07;10.35;;;2.80;;
66970;SDS011;53901;51.466;-2.588;2023-08-30T00:10:33;9.93;;;2.38;;
66970;SDS011;53901;51.466;-2.588;2023-08-30T00:12:58;9.60;;;2.80;;
66970;SDS011;53901;51.466;-2.588;2023-08-30T00:15:24;10.60;;;2.72;;
66970;SDS011;53901;51.466;-2.588;2023-08-30T00:17:49;11.27;;;2.53;;
66970;SDS011;53901;51.466;-2.588;2023-08-30T00:20:16;7.45;;;2.25;;
66970;SDS011;53901;51.466;-2.588;2023-08-30T00:22:42;12.68;;;2.60;;
66970;SDS011;53901;51.466;-2.588;2023-08-30T00:25:07;9.73;;;2.83;;
66970;SDS011;53901;51.466;-2.588;2023-08-30T00:27:33;11.45;;;2.92;;
66970;SDS011;53901;51.466;-2.588;2023-08-30T00:29:58;8.93;;;2.28;;
66970;SDS011;53901;51.466;-2.588;2023-08-30T00:32:23;9.50;;;2.45;;
66970;SDS011;53901;51.466;-2.588;2023-08-30T00:34:50;11.88;;;2.85;;
66970;SDS011;53901;51.466;-2.588;2023-08-30T00:37:16;6.70;;;2.35;;
66970;SDS011;53901;51.466;-2.588;2023-08-30T00:39:41;10.13;;;2.55;;
66970;SDS011;53901;51.466;-2.588;2023-08-30T00:42:07;10.23;;;2.55;;
66970;SDS011;53901;51.466;-2.588;2023-08-30T00:44:35;6.20;;;2.42;;
66970;SDS011;53901;51.466;-2.588;2023-08-30T00:47:01;9.18;;;2.60;;
66970;SDS011;53901;51.466;-2.588;2023-08-30T00:49:28;6.63;;;2.17;;
66970;SDS011;53901;51.466;-2.588;2023-08-30T00:51:55;11.93;;;2.70;;
66970;SDS011;53901;51.466;-2.588;2023-08-30T00:54:21;5.88;;;2.17;;
66970;SDS011;53901;51.466;-2.588;2023-08-30T00:56:46;7.28;;;2.50;;
66970;SDS011;53901;51.466;-2.588;2023-08-30T00:59:12;13.13;;;2.72;;
66970;SDS011;53901;51.466;-2.588;2023-08-30T01:01:38;8.60;;;2.50;;
66970;SDS011;53901;51.466;-2.588;2023-08-30T01:04:05;10.75;;;2.55;;
66970;SDS011;53901;51.466;-2.588;2023-08-30T01:06:30;11.98;;;2.70;;
66970;SDS011;53901;51.466;-2.588;2023-08-30T01:08:56;8.93;;;2.80;;
66970;SDS011;53901;51.466;-2.588;2023-08-30T01:11:23;11.93;;;3.03;;
66970;SDS011;53901;51.466;-2.588;2023-08-30T01:13:59;8.93;;;2.70;;
66970;SDS011;53901;51.466;-2.588;2023-08-30T01:16:32;10.00;;;2.95;;
66970;SDS011;53901;51.466;-2.588;2023-08-30T01:18:58;12.30;;;3.30;;
66970;SDS011;53901;51.466;-2.588;2023-08-30T01:24:29;7.97;;;2.80;;
66970;SDS011;53901;51.466;-2.588;2023-08-30T01:27:10;12.65;;;2.85;;
66970;SDS011;53901;51.466;-2.588;2023-08-30T01:29:40;9.15;;;2.90;;
66970;SDS011;53901;51.466;-2.588;2023-08-30T01:32:08;14.05;;;2.83;;
66970;SDS011;53901;51.466;-2.588;2023-08-30T01:34:34;9.77;;;2.83;;
66970;SDS011;53901;51.466;-2.588;2023-08-30T01:37:02;8.77;;;2.80;;
66970;SDS011;53901;51.466;-2.588;2023-08-30T01:39:28;9.13;;;2.80;;
66970;SDS011;53901;51.466;-2.588;2023-08-30T01:41:54;10.20;;;2.97;;
66970;SDS011;53901;51.466;-2.588;2023-08-30T01:44:24;9.35;;;2.90;;
66970;SDS011;53901;51.466;-2.588;2023-08-30T01:46:51;10.13;;;2.70;;
66970;SDS011;53901;51.466;-2.588;2023-08-30T01:49:17;12.80;;;3.10;;
66970;SDS011;53901;51.466;-2.588;2023-08-30T01:51:43;9.98;;;2.47;;
66970;SDS011;53901;51.466;-2.588;2023-08-30T01:54:08;10.27;;;2.50;;
66970;SDS011;53901;51.466;-2.588;2023-08-30T01:56:34;8.43;;;2.45;;
66970;SDS011;53901;51.466;-2.588;2023-08-30T01:59:00;11.23;;;3.00;;
66970;SDS011;53901;51.466;-2.588;2023-08-30T02:01:25;7.47;;;2.25;;
66970;SDS011;53901;51.466;-2.588;2023-08-30T02:03:50;8.18;;;2.75;;
66970;SDS011;53901;51.466;-2.588;2023-08-30T02:07:00;7.40;;;2.30;;
66970;SDS011;53901;51.466;-2.588;2023-08-30T02:09:14;9.55;;;2.80;;
66970;SDS011;53901;51.466;-2.588;2023-08-30T02:11:44;12.02;;;2.53;;
66970;SDS011;53901;51.466;-2.588;2023-08-30T02:14:10;7.53;;;2.80;;
66970;SDS011;53901;51.466;-2.588;2023-08-30T02:16:37;11.13;;;2.58;;
66970;SDS011;53901;51.466;-2.588;2023-08-30T02:19:04;4.22;;;2.20;;
66970;SDS011;53901;51.466;-2.588;2023-08-30T02:21:30;9.20;;;2.67;;
66970;SDS011;53901;51.466;-2.588;2023-08-30T02:23:56;5.38;;;2.42;;
66970;SDS011;53901;51.466;-2.588;2023-08-30T02:26:21;6.65;;;2.40;;
66970;SDS011;53901;51.466;-2.588;2023-08-30T02:28:47;8.52;;;2.58;;
66970;SDS011;53901;51.466;-2.588;2023-08-30T02:31:12;10.02;;;2.58;;
66970;SDS011;53901;51.466;-2.588;2023-08-30T02:33:38;11.82;;;2.50;;
66970;SDS011;53901;51.466;-2.588;2023-08-30T02:36:03;6.65;;;2.60;;
66970;SDS011;53901;51.466;-2.588;2023-08-30T02:38:29;6.55;;;2.60;;
66970;SDS011;53901;51.466;-2.588;2023-08-30T02:40:54;12.48;;;2.20;;
66970;SDS011;53901;51.466;-2.588;2023-08-30T02:43:20;8.38;;;3.58;;
66970;SDS011;53901;51.466;-2.588;2023-08-30T02:45:45;8.32;;;2.80;;
66970;SDS011;53901;51.466;-2.588;2023-08-30T02:48:10;12.13;;;2.70;;
66970;SDS011;53901;51.466;-2.588;2023-08-30T02:50:36;7.68;;;2.58;;
66970;SDS011;53901;51.466;-2.588;2023-08-30T02:53:01;7.47;;;2.70;;
66970;SDS011;53901;51.466;-2.588;2023-08-30T02:55:27;8.63;;;2.28;;
66970;SDS011;53901;51.466;-2.588;2023-08-30T02:57:52;9.93;;;2.28;;
66970;SDS011;53901;51.466;-2.588;2023-08-30T03:00:18;9.00;;;2.50;;
66970;SDS011;53901;51.466;-2.588;2023-08-30T03:02:43;9.60;;;2.70;;
66970;SDS011;53901;51.466;-2.588;2023-08-30T03:05:08;9.45;;;2.55;;
66970;SDS011;53901;51.466;-2.588;2023-08-30T03:07:34;10.38;;;2.50;;
66970;SDS011;53901;51.466;-2.588;2023-08-30T03:09:59;3.88;;;1.92;;
66970;SDS011;53901;51.466;-2.588;2023-08-30T03:12:25;7.80;;;2.30;;
66970;SDS011;53901;51.466;-2.588;2023-08-30T03:14:50;11.00;;;2.40;;
66970;SDS011;53901;51.466;-2.588;2023-08-30T03:17:16;6.85;;;2.33;;
66970;SDS011;53901;51.466;-2.588;2023-08-30T03:19:41;8.80;;;2.30;;
66970;SDS011;53901;51.466;-2.588;2023-08-30T03:22:07;8.65;;;2.30;;
66970;SDS011;53901;51.466;-2.588;2023-08-30T03:24:32;7.88;;;2.30;;
66970;SDS011;53901;51.466;-2.588;2023-08-30T03:26:57;5.80;;;2.40;;
66970;SDS011;53901;51.466;-2.588;2023-08-30T03:29:24;12.32;;;2.70;;
66970;SDS011;53901;51.466;-2.588;2023-08-30T03:31:50;11.35;;;3.05;;
66970;SDS011;53901;51.466;-2.588;2023-08-30T03:34:15;6.07;;;2.50;;
66970;SDS011;53901;51.466;-2.588;2023-08-30T03:36:41;6.10;;;2.13;;
66970;SDS011;53901;51.466;-2.588;2023-08-30T03:39:09;10.00;;;2.63;;
66970;SDS011;53901;51.466;-2.588;2023-08-30T03:41:34;8.88;;;2.55;;
66970;SDS011;53901;51.466;-2.588;2023-08-30T03:43:59;9.52;;;2.30;;
66970;SDS011;53901;51.466;-2.588;2023-08-30T03:46:25;6.40;;;2.00;;
66970;SDS011;53901;51.466;-2.588;2023-08-30T03:48:50;7.45;;;2.00;;
66970;SDS011;53901;51.466;-2.588;2023-08-30T03:51:16;8.45;;;1.98;;
66970;SDS011;53901;51.466;-2.588;2023-08-30T03:53:42;6.30;;;2.10;;
66970;SDS011;53901;51.466;-2.588;2023-08-30T03:56:07;9.38;;;2.10;;
66970;SDS011;53901;51.466;-2.588;2023-08-30T03:58:33;8.57;;;2.10;;
66970;SDS011;53901;51.466;-2.588;2023-08-30T04:00:58;7.80;;;1.77;;
66970;SDS011;53901;51.466;-2.588;2023-08-30T04:03:23;6.22;;;1.75;;
66970;SDS011;53901;51.466;-2.588;2023-08-30T04:05:54;11.18;;;1.90;;
66970;SDS011;53901;51.466;-2.588;2023-08-30T04:08:22;11.65;;;2.40;;
66970;SDS011;53901;51.466;-2.588;2023-08-30T04:10:48;8.18;;;2.50;;
66970;SDS011;53901;51.466;-2.588;2023-08-30T04:13:14;7.78;;;2.10;;
66970;SDS011;53901;51.466;-2.588;2023-08-30T04:15:40;6.85;;;2.22;;
66970;SDS011;53901;51.466;-2.588;2023-08-30T04:18:06;7.78;;;2.42;;
66970;SDS011;53901;51.466;-2.588;2023-08-30T04:20:31;9.80;;;2.00;;
66970;SDS011;53901;51.466;-2.588;2023-08-30T04:22:57;9.02;;;2.30;;
66970;SDS011;53901;51.466;-2.588;2023-08-30T04:25:26;9.40;;;3.03;;
66970;SDS011;53901;51.466;-2.588;2023-08-30T04:27:51;6.82;;;2.20;;
66970;SDS011;53901;51.466;-2.588;2023-08-30T04:30:17;6.47;;;2.28;;
66970;SDS011;53901;51.466;-2.588;2023-08-30T04:32:42;11.73;;;2.20;;
66970;SDS011;53901;51.466;-2.588;2023-08-30T04:35:08;9.20;;;2.13;;
66970;SDS011;53901;51.466;-2.588;2023-08-30T04:37:33;7.20;;;2.15;;
66970;SDS011;53901;51.466;-2.588;2023-08-30T04:39:59;7.68;;;2.17;;
66970;SDS011;53901;51.466;-2.588;2023-08-30T04:42:24;13.80;;;2.20;;
66970;SDS011;53901;51.466;-2.588;2023-08-30T04:44:50;10.50;;;2.13;;
66970;SDS011;53901;51.466;-2.588;2023-08-30T04:47:17;6.35;;;2.30;;
66970;SDS011;53901;51.466;-2.588;2023-08-30T04:49:42;11.15;;;2.22;;
66970;SDS011;53901;51.466;-2.588;2023-08-30T04:52:07;7.05;;;1.92;;
66970;SDS011;53901;51.466;-2.588;2023-08-30T04:54:33;6.18;;;2.10;;
66970;SDS011;53901;51.466;-2.588;2023-08-30T04:56:58;5.43;;;1.92;;
66970;SDS011;53901;51.466;-2.588;2023-08-30T04:59:24;4.80;;;1.75;;
66970;SDS011;53901;51.466;-2.588;2023-08-30T05:01:49;11.93;;;2.33;;
66970;SDS011;53901;51.466;-2.588;2023-08-30T05:04:16;13.25;;;2.10;;
66970;SDS011;53901;51.466;-2.588;2023-08-30T05:06:41;11.43;;;2.03;;
66970;SDS011;53901;51.466;-2.588;2023-08-30T05:09:07;12.43;;;2.13;;
66970;SDS011;53901;51.466;-2.588;2023-08-30T05:11:32;12.45;;;2.20;;
66970;SDS011;53901;51.466;-2.588;2023-08-30T05:13:57;5.05;;;1.70;;
66970;SDS011;53901;51.466;-2.588;2023-08-30T05:16:23;6.00;;;2.20;;
66970;SDS011;53901;51.466;-2.588;2023-08-30T05:18:48;7.55;;;2.17;;
66970;SDS011;53901;51.466;-2.588;2023-08-30T05:21:14;9.68;;;2.05;;
66970;SDS011;53901;51.466;-2.588;2023-08-30T05:23:39;6.38;;;2.13;;
66970;SDS011;53901;51.466;-2.588;2023-08-30T05:26:10;11.40;;;2.10;;
66970;SDS011;53901;51.466;-2.588;2023-08-30T05:28:39;6.40;;;1.80;;
66970;SDS011;53901;51.466;-2.588;2023-08-30T05:31:04;7.75;;;2.17;;
66970;SDS011;53901;51.466;-2.588;2023-08-30T05:33:30;13.15;;;2.25;;
66970;SDS011;53901;51.466;-2.588;2023-08-30T05:35:55;8.60;;;1.90;;
66970;SDS011;53901;51.466;-2.588;2023-08-30T05:38:21;9.13;;;2.60;;
66970;SDS011;53901;51.466;-2.588;2023-08-30T05:40:46;6.45;;;2.03;;
66970;SDS011;53901;51.466;-2.588;2023-08-30T05:43:12;5.28;;;1.80;;
66970;SDS011;53901;51.466;-2.588;2023-08-30T05:45:37;5.95;;;1.88;;
66970;SDS011;53901;51.466;-2.588;2023-08-30T05:48:03;7.55;;;2.13;;
66970;SDS011;53901;51.466;-2.588;2023-08-30T05:50:28;7.63;;;1.95;;
66970;SDS011;53901;51.466;-2.588;2023-08-30T05:52:54;8.70;;;2.10;;
66970;SDS011;53901;51.466;-2.588;2023-08-30T05:55:20;7.05;;;1.85;;
66970;SDS011;53901;51.466;-2.588;2023-08-30T05:57:45;5.07;;;1.80;;
66970;SDS011;53901;51.466;-2.588;2023-08-30T06:00:11;6.38;;;1.85;;
66970;SDS011;53901;51.466;-2.588;2023-08-30T06:02:38;9.85;;;1.98;;
66970;SDS011;53901;51.466;-2.588;2023-08-30T06:05:03;8.70;;;1.70;;
66970;SDS011;53901;51.466;-2.588;2023-08-30T06:07:29;4.53;;;1.70;;
66970;SDS011;53901;51.466;-2.588;2023-08-30T06:09:54;5.32;;;1.80;;
66970;SDS011;53901;51.466;-2.588;2023-08-30T06:12:20;6.53;;;1.70;;
66970;SDS011;53901;51.466;-2.588;2023-08-30T06:14:45;6.22;;;2.00;;
66970;SDS011;53901;51.466;-2.588;2023-08-30T06:17:16;11.38;;;2.75;;
66970;SDS011;53901;51.466;-2.588;2023-08-30T06:19:42;11.98;;;2.38;;
66970;SDS011;53901;51.466;-2.588;2023-08-30T06:22:07;8.55;;;2.40;;
66970;SDS011;53901;51.466;-2.588;2023-08-30T06:24:33;8.55;;;1.88;;
66970;SDS011;53901;51.466;-2.588;2023-08-30T06:26:59;6.60;;;2.08;;
66970;SDS011;53901;51.466;-2.588;2023-08-30T06:29:24;5.57;;;1.70;;
66970;SDS011;53901;51.466;-2.588;2023-08-30T06:31:50;4.55;;;1.50;;
66970;SDS011;53901;51.466;-2.588;2023-08-30T06:34:15;6.32;;;1.35;;
66970;SDS011;53901;51.466;-2.588;2023-08-30T06:36:41;7.50;;;1.52;;
66970;SDS011;53901;51.466;-2.588;2023-08-30T06:39:07;11.13;;;1.85;;
66970;SDS011;53901;51.466;-2.588;2023-08-30T06:41:32;6.40;;;1.70;;
66970;SDS011;53901;51.466;-2.588;2023-08-30T06:43:58;6.78;;;1.58;;
66970;SDS011;53901;51.466;-2.588;2023-08-30T06:46:23;6.40;;;1.70;;
66970;SDS011;53901;51.466;-2.588;2023-08-30T06:48:49;6.90;;;1.88;;
66970;SDS011;53901;51.466;-2.588;2023-08-30T06:51:14;5.15;;;1.55;;
66970;SDS011;53901;51.466;-2.588;2023-08-30T06:53:39;5.28;;;1.70;;
66970;SDS011;53901;51.466;-2.588;2023-08-30T06:56:05;3.85;;;1.63;;
66970;SDS011;53901;51.466;-2.588;2023-08-30T06:58:30;4.43;;;1.48;;
66970;SDS011;53901;51.466;-2.588;2023-08-30T07:00:59;5.53;;;1.75;;
66970;SDS011;53901;51.466;-2.588;2023-08-30T07:03:24;8.30;;;1.95;;
66970;SDS011;53901;51.466;-2.588;2023-08-30T07:05:52;4.80;;;1.50;;
66970;SDS011;53901;51.466;-2.588;2023-08-30T07:08:18;7.00;;;1.63;;
66970;SDS011;53901;51.466;-2.588;2023-08-30T07:10:44;4.32;;;1.30;;
66970;SDS011;53901;51.466;-2.588;2023-08-30T07:13:09;12.80;;;1.90;;
66970;SDS011;53901;51.466;-2.588;2023-08-30T07:15:41;5.90;;;1.25;;
66970;SDS011;53901;51.466;-2.588;2023-08-30T07:18:07;4.97;;;1.60;;
66970;SDS011;53901;51.466;-2.588;2023-08-30T07:20:33;7.25;;;1.40;;
66970;SDS011;53901;51.466;-2.588;2023-08-30T07:22:59;5.68;;;1.30;;
66970;SDS011;53901;51.466;-2.588;2023-08-30T07:25:25;4.45;;;1.40;;
66970;SDS011;53901;51.466;-2.588;2023-08-30T07:27:50;7.47;;;1.42;;
66970;SDS011;53901;51.466;-2.588;2023-08-30T07:30:16;4.07;;;1.55;;
66970;SDS011;53901;51.466;-2.588;2023-08-30T07:32:41;4.70;;;1.27;;
66970;SDS011;53901;51.466;-2.588;2023-08-30T07:35:07;5.05;;;1.20;;
66970;SDS011;53901;51.466;-2.588;2023-08-30T07:37:33;6.50;;;1.88;;
66970;SDS011;53901;51.466;-2.588;2023-08-30T07:39:59;7.97;;;1.48;;
66970;SDS011;53901;51.466;-2.588;2023-08-30T07:42:25;5.75;;;1.50;;
66970;SDS011;53901;51.466;-2.588;2023-08-30T07:44:50;6.53;;;1.35;;
66970;SDS011;53901;51.466;-2.588;2023-08-30T07:47:15;5.50;;;1.35;;
66970;SDS011;53901;51.466;-2.588;2023-08-30T07:49:41;5.22;;;1.60;;
66970;SDS011;53901;51.466;-2.588;2023-08-30T07:52:06;5.30;;;1.55;;
66970;SDS011;53901;51.466;-2.588;2023-08-30T07:54:35;5.82;;;1.40;;
66970;SDS011;53901;51.466;-2.588;2023-08-30T07:57:01;4.43;;;1.17;;
66970;SDS011;53901;51.466;-2.588;2023-08-30T07:59:27;6.32;;;1.40;;
66970;SDS011;53901;51.466;-2.588;2023-08-30T08:01:52;6.47;;;1.38;;
66970;SDS011;53901;51.466;-2.588;2023-08-30T08:04:18;4.32;;;1.25;;
66970;SDS011;53901;51.466;-2.588;2023-08-30T08:06:43;3.72;;;1.00;;
66970;SDS011;53901;51.466;-2.588;2023-08-30T08:09:09;5.50;;;1.17;;
66970;SDS011;53901;51.466;-2.588;2023-08-30T08:11:34;4.20;;;1.20;;
66970;SDS011;53901;51.466;-2.588;2023-08-30T08:14:00;6.50;;;1.27;;
66970;SDS011;53901;51.466;-2.588;2023-08-30T08:16:25;3.95;;;1.10;;
66970;SDS011;53901;51.466;-2.588;2023-08-30T08:18:50;5.43;;;1.25;;
66970;SDS011;53901;51.466;-2.588;2023-08-30T08:21:17;10.82;;;1.30;;
66970;SDS011;53901;51.466;-2.588;2023-08-30T08:23:43;5.78;;;1.27;;
66970;SDS011;53901;51.466;-2.588;2023-08-30T08:26:08;6.82;;;1.65;;
66970;SDS011;53901;51.466;-2.588;2023-08-30T08:28:34;7.80;;;1.63;;
66970;SDS011;53901;51.466;-2.588;2023-08-30T08:30:59;9.13;;;1.17;;
66970;SDS011;53901;51.466;-2.588;2023-08-30T08:33:25;6.60;;;1.50;;
66970;SDS011;53901;51.466;-2.588;2023-08-30T08:35:50;3.80;;;1.10;;
66970;SDS011;53901;51.466;-2.588;2023-08-30T08:38:16;6.03;;;1.40;;
66970;SDS011;53901;51.466;-2.588;2023-08-30T08:40:41;5.65;;;1.05;;
66970;SDS011;53901;51.466;-2.588;2023-08-30T08:43:11;4.85;;;1.00;;
66970;SDS011;53901;51.466;-2.588;2023-08-30T08:45:37;3.25;;;1.30;;
66970;SDS011;53901;51.466;-2.588;2023-08-30T08:48:05;2.97;;;1.20;;
66970;SDS011;53901;51.466;-2.588;2023-08-30T08:50:32;5.82;;;1.20;;
66970;SDS011;53901;51.466;-2.588;2023-08-30T08:52:57;3.78;;;1.20;;
66970;SDS011;53901;51.466;-2.588;2023-08-30T08:55:24;4.32;;;1.10;;
66970;SDS011;53901;51.466;-2.588;2023-08-30T08:57:51;5.20;;;1.40;;
66970;SDS011;53901;51.466;-2.588;2023-08-30T09:00:18;3.45;;;1.10;;
66970;SDS011;53901;51.466;-2.588;2023-08-30T09:02:44;11.35;;;2.50;;
66970;SDS011;53901;51.466;-2.588;2023-08-30T09:05:11;2.10;;;1.10;;
66970;SDS011;53901;51.466;-2.588;2023-08-30T09:07:36;5.82;;;1.48;;
66970;SDS011;53901;51.466;-2.588;2023-08-30T09:10:02;4.85;;;1.48;;
66970;SDS011;53901;51.466;-2.588;2023-08-30T09:12:31;4.00;;;1.20;;
66970;SDS011;53901;51.466;-2.588;2023-08-30T09:14:57;2.22;;;0.90;;
66970;SDS011;53901;51.466;-2.588;2023-08-30T09:17:23;6.30;;;1.13;;
66970;SDS011;53901;51.466;-2.588;2023-08-30T09:19:49;3.72;;;1.35;;
66970;SDS011;53901;51.466;-2.588;2023-08-30T09:22:15;3.63;;;1.02;;
66970;SDS011;53901;51.466;-2.588;2023-08-30T09:24:40;3.22;;;1.13;;
66970;SDS011;53901;51.466;-2.588;2023-08-30T09:27:06;6.28;;;1.33;;
66970;SDS011;53901;51.466;-2.588;2023-08-30T09:29:32;6.70;;;1.40;;
66970;SDS011;53901;51.466;-2.588;2023-08-30T09:31:57;3.35;;;1.30;;
66970;SDS011;53901;51.466;-2.588;2023-08-30T09:34:23;2.67;;;1.27;;
66970;SDS011;53901;51.466;-2.588;2023-08-30T09:36:52;6.03;;;1.10;;
66970;SDS011;53901;51.466;-2.588;2023-08-30T09:39:18;8.85;;;1.40;;
66970;SDS011;53901;51.466;-2.588;2023-08-30T09:41:44;2.67;;;0.93;;
66970;SDS011;53901;51.466;-2.588;2023-08-30T09:44:11;5.57;;;1.30;;
66970;SDS011;53901;51.466;-2.588;2023-08-30T09:46:43;6.70;;;1.10;;
66970;SDS011;53901;51.466;-2.588;2023-08-30T09:49:10;7.40;;;1.33;;
66970;SDS011;53901;51.466;-2.588;2023-08-30T09:51:37;3.33;;;0.85;;
66970;SDS011;53901;51.466;-2.588;2023-08-30T09:54:06;4.15;;;1.10;;
66970;SDS011;53901;51.466;-2.588;2023-08-30T09:56:46;2.13;;;0.90;;
66970;SDS011;53901;51.466;-2.588;2023-08-30T09:59:12;3.13;;;1.00;;
66970;SDS011;53901;51.466;-2.588;2023-08-30T10:01:39;3.30;;;1.13;;
66970;SDS011;53901;51.466;-2.588;2023-08-30T10:04:06;4.22;;;1.20;;
66970;SDS011;53901;51.466;-2.588;2023-08-30T10:06:33;1.90;;;0.88;;
66970;SDS011;53901;51.466;-2.588;2023-08-30T10:08:58;6.28;;;1.40;;
66970;SDS011;53901;51.466;-2.588;2023-08-30T10:11:24;3.40;;;1.20;;
66970;SDS011;53901;51.466;-2.588;2023-08-30T10:13:50;8.52;;;1.30;;
66970;SDS011;53901;51.466;-2.588;2023-08-30T10:16:22;6.28;;;1.50;;
66970;SDS011;53901;51.466;-2.588;2023-08-30T10:18:52;4.85;;;1.10;;
66970;SDS011;53901;51.466;-2.588;2023-08-30T10:21:29;2.97;;;1.20;;
66970;SDS011;53901;51.466;-2.588;2023-08-30T10:23:54;2.30;;;1.08;;
66970;SDS011;53901;51.466;-2.588;2023-08-30T10:26:22;3.65;;;1.08;;
66970;SDS011;53901;51.466;-2.588;2023-08-30T10:28:49;3.10;;;1.05;;
66970;SDS011;53901;51.466;-2.588;2023-08-30T10:31:16;3.40;;;1.13;;
66970;SDS011;53901;51.466;-2.588;2023-08-30T10:33:48;3.92;;;1.05;;
66970;SDS011;53901;51.466;-2.588;2023-08-30T10:36:24;2.50;;;0.88;;
66970;SDS011;53901;51.466;-2.588;2023-08-30T10:38:51;4.68;;;0.98;;
66970;SDS011;53901;51.466;-2.588;2023-08-30T10:41:20;3.00;;;0.85;;
66970;SDS011;53901;51.466;-2.588;2023-08-30T10:43:49;2.78;;;1.10;;
66970;SDS011;53901;51.466;-2.588;2023-08-30T10:46:16;1.98;;;0.90;;
66970;SDS011;53901;51.466;-2.588;2023-08-30T10:48:41;3.15;;;0.90;;
66970;SDS011;53901;51.466;-2.588;2023-08-30T10:51:21;2.85;;;0.85;;
66970;SDS011;53901;51.466;-2.588;2023-08-30T10:53:57;2.65;;;0.77;;
66970;SDS011;53901;51.466;-2.588;2023-08-30T10:58:55;6.03;;;1.73;;
66970;SDS011;53901;51.466;-2.588;2023-08-30T11:01:21;5.00;;;1.00;;
66970;SDS011;53901;51.466;-2.588;2023-08-30T11:03:48;4.00;;;1.10;;
66970;SDS011;53901;51.466;-2.588;2023-08-30T11:06:14;5.25;;;1.10;;
66970;SDS011;53901;51.466;-2.588;2023-08-30T11:08:43;4.45;;;1.00;;
66970;SDS011;53901;51.466;-2.588;2023-08-30T11:11:09;5.75;;;1.30;;
66970;SDS011;53901;51.466;-2.588;2023-08-30T11:13:37;4.32;;;1.15;;
66970;SDS011;53901;51.466;-2.588;2023-08-30T11:16:02;4.32;;;1.20;;
66970;SDS011;53901;51.466;-2.588;2023-08-30T11:18:38;3.55;;;1.10;;
66970;SDS011;53901;51.466;-2.588;2023-08-30T11:21:07;3.50;;;1.00;;
66970;SDS011;53901;51.466;-2.588;2023-08-30T11:23:34;3.47;;;1.00;;
66970;SDS011;53901;51.466;-2.588;2023-08-30T11:25:59;5.57;;;1.10;;
66970;SDS011;53901;51.466;-2.588;2023-08-30T11:28:28;2.05;;;0.90;;
66970;SDS011;53901;51.466;-2.588;2023-08-30T11:30:53;7.82;;;1.10;;
66970;SDS011;53901;51.466;-2.588;2023-08-30T11:33:19;2.17;;;0.80;;
66970;SDS011;53901;51.466;-2.588;2023-08-30T11:35:45;2.13;;;0.90;;
66970;SDS011;53901;51.466;-2.588;2023-08-30T11:38:13;3.10;;;1.08;;
66970;SDS011;53901;51.466;-2.588;2023-08-30T11:40:39;1.77;;;0.80;;
66970;SDS011;53901;51.466;-2.588;2023-08-30T11:43:04;2.63;;;0.90;;
66970;SDS011;53901;51.466;-2.588;2023-08-30T11:45:31;1.70;;;0.70;;
66970;SDS011;53901;51.466;-2.588;2023-08-30T11:47:59;6.18;;;1.42;;
66970;SDS011;53901;51.466;-2.588;2023-08-30T11:50:26;4.18;;;1.20;;
66970;SDS011;53901;51.466;-2.588;2023-08-30T11:52:52;3.28;;;1.10;;
66970;SDS011;53901;51.466;-2.588;2023-08-30T11:55:17;2.70;;;0.85;;
66970;SDS011;53901;51.466;-2.588;2023-08-30T11:57:44;6.28;;;1.52;;
66970;SDS011;53901;51.466;-2.588;2023-08-30T12:00:10;2.17;;;1.00;;
66970;SDS011;53901;51.466;-2.588;2023-08-30T12:02:36;2.83;;;1.05;;
66970;SDS011;53901;51.466;-2.588;2023-08-30T12:05:03;3.17;;;1.00;;
66970;SDS011;53901;51.466;-2.588;2023-08-30T12:07:29;3.88;;;1.08;;
66970;SDS011;53901;51.466;-2.588;2023-08-30T12:10:04;2.33;;;1.00;;
66970;SDS011;53901;51.466;-2.588;2023-08-30T12:12:30;3.80;;;0.80;;
66970;SDS011;53901;51.466;-2.588;2023-08-30T12:14:56;2.05;;;1.00;;
66970;SDS011;53901;51.466;-2.588;2023-08-30T12:17:22;3.40;;;0.85;;
66970;SDS011;53901;51.466;-2.588;2023-08-30T12:19:54;6.57;;;1.20;;
66970;SDS011;53901;51.466;-2.588;2023-08-30T12:22:21;3.03;;;1.00;;
66970;SDS011;53901;51.466;-2.588;2023-08-30T12:24:46;2.50;;;0.80;;
66970;SDS011;53901;51.466;-2.588;2023-08-30T12:27:15;3.42;;;1.00;;
66970;SDS011;53901;51.466;-2.588;2023-08-30T12:29:40;2.97;;;1.02;;
66970;SDS011;53901;51.466;-2.588;2023-08-30T12:32:06;3.22;;;1.10;;
66970;SDS011;53901;51.466;-2.588;2023-08-30T12:34:33;3.03;;;1.10;;
66970;SDS011;53901;51.466;-2.588;2023-08-30T12:36:58;2.80;;;1.08;;
66970;SDS011;53901;51.466;-2.588;2023-08-30T12:39:24;2.97;;;1.10;;
66970;SDS011;53901;51.466;-2.588;2023-08-30T12:41:49;4.35;;;1.20;;
66970;SDS011;53901;51.466;-2.588;2023-08-30T12:44:15;2.70;;;1.05;;
66970;SDS011;53901;51.466;-2.588;2023-08-30T12:46:40;2.35;;;1.10;;
66970;SDS011;53901;51.466;-2.588;2023-08-30T12:49:05;2.63;;;1.02;;
66970;SDS011;53901;51.466;-2.588;2023-08-30T12:51:31;4.18;;;1.02;;
66970;SDS011;53901;51.466;-2.588;2023-08-30T12:53:56;2.97;;;1.23;;
66970;SDS011;53901;51.466;-2.588;2023-08-30T12:56:21;2.05;;;0.90;;
66970;SDS011;53901;51.466;-2.588;2023-08-30T12:58:47;2.95;;;1.10;;
66970;SDS011;53901;51.466;-2.588;2023-08-30T13:01:12;4.38;;;1.23;;
66970;SDS011;53901;51.466;-2.588;2023-08-30T13:03:38;2.20;;;1.00;;
66970;SDS011;53901;51.466;-2.588;2023-08-30T13:06:03;1.85;;;1.00;;
66970;SDS011;53901;51.466;-2.588;2023-08-30T13:08:29;4.45;;;1.10;;
66970;SDS011;53901;51.466;-2.588;2023-08-30T13:10:54;3.17;;;0.90;;
66970;SDS011;53901;51.466;-2.588;2023-08-30T13:13:20;2.17;;;1.00;;
66970;SDS011;53901;51.466;-2.588;2023-08-30T13:15:46;3.75;;;1.35;;
66970;SDS011;53901;51.466;-2.588;2023-08-30T13:18:13;4.18;;;1.10;;
66970;SDS011;53901;51.466;-2.588;2023-08-30T13:20:40;3.58;;;1.20;;
66970;SDS011;53901;51.466;-2.588;2023-08-30T13:23:06;2.55;;;1.15;;
66970;SDS011;53901;51.466;-2.588;2023-08-30T13:25:31;1.70;;;1.00;;
66970;SDS011;53901;51.466;-2.588;2023-08-30T13:27:56;5.97;;;1.50;;
66970;SDS011;53901;51.466;-2.588;2023-08-30T13:30:22;2.45;;;0.95;;
66970;SDS011;53901;51.466;-2.588;2023-08-30T13:32:47;2.15;;;0.98;;
66970;SDS011;53901;51.466;-2.588;2023-08-30T13:35:13;2.67;;;1.25;;
66970;SDS011;53901;51.466;-2.588;2023-08-30T13:37:38;3.30;;;1.40;;
66970;SDS011;53901;51.466;-2.588;2023-08-30T13:40:03;4.25;;;1.30;;
66970;SDS011;53901;51.466;-2.588;2023-08-30T13:42:31;6.65;;;1.55;;
66970;SDS011;53901;51.466;-2.588;2023-08-30T13:44:57;2.55;;;1.08;;
66970;SDS011;53901;51.466;-2.588;2023-08-30T13:47:23;4.43;;;1.02;;
66970;SDS011;53901;51.466;-2.588;2023-08-30T13:49:48;5.13;;;1.30;;
66970;SDS011;53901;51.466;-2.588;2023-08-30T13:52:13;3.17;;;1.23;;
66970;SDS011;53901;51.466;-2.588;2023-08-30T13:54:39;3.40;;;1.30;;
66970;SDS011;53901;51.466;-2.588;2023-08-30T13:57:04;7.78;;;1.52;;
66970;SDS011;53901;51.466;-2.588;2023-08-30T13:59:30;3.47;;;1.13;;
66970;SDS011;53901;51.466;-2.588;2023-08-30T14:01:55;3.30;;;1.10;;
66970;SDS011;53901;51.466;-2.588;2023-08-30T14:04:23;3.83;;;1.10;;
66970;SDS011;53901;51.466;-2.588;2023-08-30T14:06:49;2.60;;;1.30;;
66970;SDS011;53901;51.466;-2.588;2023-08-30T14:09:15;5.05;;;1.30;;
66970;SDS011;53901;51.466;-2.588;2023-08-30T14:11:40;4.80;;;1.50;;
66970;SDS011;53901;51.466;-2.588;2023-08-30T14:14:06;2.85;;;1.10;;
66970;SDS011;53901;51.466;-2.588;2023-08-30T14:16:32;3.33;;;1.40;;
66970;SDS011;53901;51.466;-2.588;2023-08-30T14:18:58;2.88;;;1.20;;
66970;SDS011;53901;51.466;-2.588;2023-08-30T14:21:25;8.27;;;1.85;;
66970;SDS011;53901;51.466;-2.588;2023-08-30T14:23:51;6.32;;;1.30;;
66970;SDS011;53901;51.466;-2.588;2023-08-30T14:26:16;4.28;;;1.20;;
66970;SDS011;53901;51.466;-2.588;2023-08-30T14:28:42;5.68;;;1.42;;
66970;SDS011;53901;51.466;-2.588;2023-08-30T14:31:08;4.53;;;1.30;;
66970;SDS011;53901;51.466;-2.588;2023-08-30T14:33:34;6.18;;;1.60;;